sensor_id;sensor_type;location;lat;lon;timestamp;noise_LAeq;noise_LA_min;noise_LA_max;noise_LA01;noise_LA95
65079;Laerm;52655;52.218;5.964;2023-07-31T00:01:54;44.0;41.2;53.2;;
65079;Laerm;52655;52.218;5.964;2023-07-31T00:04:55;43.6;40.8;48.4;;
65079;Laerm;52655;52.218;5.964;2023-07-31T00:07:56;52.4;46.1;59.8;;
65079;Laerm;52655;52.218;5.964;2023-07-31T00:10:57;50.9;46.4;58.0;;
65079;Laerm;52655;52.218;5.964;2023-07-31T00:13:58;44.7;42.1;49.6;;
65079;Laerm;52655;52.218;5.964;2023-07-31T00:16:59;44.4;40.9;58.0;;
65079;Laerm;52655;52.218;5.964;2023-07-31T00:20:00;43.4;41.2;47.4;;
65079;Laerm;52655;52.218;5.964;2023-07-31T00:23:01;41.2;38.4;45.4;;
65079;Laerm;52655;52.218;5.964;2023-07-31T00:26:02;41.6;39.6;47.1;;
65079;Laerm;52655;52.218;5.964;2023-07-31T00:29:04;41.0;38.4;44.6;;
65079;Laerm;52655;52.218;5.964;2023-07-31T00:35:06;46.3;42.2;53.0;;
65079;Laerm;52655;52.218;5.964;2023-07-31T00:38:07;48.3;45.2;54.1;;
65079;Laerm;52655;52.218;5.964;2023-07-31T00:41:08;49.2;46.2;55.0;;
65079;Laerm;52655;52.218;5.964;2023-07-31T00:44:09;43.8;40.5;56.3;;
65079;Laerm;52655;52.218;5.964;2023-07-31T00:47:10;48.8;42.3;56.9;;
65079;Laerm;52655;52.218;5.964;2023-07-31T00:50:11;48.5;43.8;56.2;;
65079;Laerm;52655;52.218;5.964;2023-07-31T00:53:12;46.0;42.6;51.9;;
65079;Laerm;52655;52.218;5.964;2023-07-31T00:56:13;52.1;47.8;58.0;;
65079;Laerm;52655;52.218;5.964;2023-07-31T00:59:14;55.6;49.2;63.0;;
65079;Laerm;52655;52.218;5.964;2023-07-31T01:02:15;59.0;52.2;69.0;;
65079;Laerm;52655;52.218;5.964;2023-07-31T01:05:16;62.3;56.0;70.0;;
65079;Laerm;52655;52.218;5.964;2023-07-31T01:08:27;64.8;56.5;69.5;;
65079;Laerm;52655;52.218;5.964;2023-07-31T01:11:27;60.6;56.8;68.2;;
65079;Laerm;52655;52.218;5.964;2023-07-31T01:14:19;54.6;48.7;60.0;;
65079;Laerm;52655;52.218;5.964;2023-07-31T01:17:20;49.9;46.6;56.0;;
65079;Laerm;52655;52.218;5.964;2023-07-31T01:20:22;43.1;40.8;49.6;;
65079;Laerm;52655;52.218;5.964;2023-07-31T01:24:22;45.7;41.3;50.3;;
65079;Laerm;52655;52.218;5.964;2023-07-31T01:26:39;56.6;48.2;62.3;;
65079;Laerm;52655;52.218;5.964;2023-07-31T01:29:29;54.5;48.4;62.0;;
65079;Laerm;52655;52.218;5.964;2023-07-31T01:32:26;51.6;45.7;58.0;;
65079;Laerm;52655;52.218;5.964;2023-07-31T01:35:27;49.3;46.3;59.0;;
65079;Laerm;52655;52.218;5.964;2023-07-31T01:38:28;50.5;46.4;57.8;;
65079;Laerm;52655;52.218;5.964;2023-07-31T01:41:29;59.2;54.1;67.2;;
65079;Laerm;52655;52.218;5.964;2023-07-31T01:44:30;61.0;52.6;70.2;;
65079;Laerm;52655;52.218;5.964;2023-07-31T01:47:31;62.1;56.1;71.6;;
65079;Laerm;52655;52.218;5.964;2023-07-31T01:50:32;61.0;56.1;65.3;;
65079;Laerm;52655;52.218;5.964;2023-07-31T01:59:35;49.7;44.9;59.0;;
65079;Laerm;52655;52.218;5.964;2023-07-31T02:02:36;46.1;41.8;52.8;;
65079;Laerm;52655;52.218;5.964;2023-07-31T02:05:37;44.5;40.9;51.3;;
65079;Laerm;52655;52.218;5.964;2023-07-31T02:08:38;42.2;37.3;49.8;;
65079;Laerm;52655;52.218;5.964;2023-07-31T02:11:39;44.3;37.8;60.6;;
65079;Laerm;52655;52.218;5.964;2023-07-31T02:14:40;46.9;40.4;55.7;;
65079;Laerm;52655;52.218;5.964;2023-07-31T02:17:41;40.8;37.6;46.8;;
65079;Laerm;52655;52.218;5.964;2023-07-31T02:20:42;45.6;38.8;50.4;;
65079;Laerm;52655;52.218;5.964;2023-07-31T02:23:43;44.0;38.7;50.3;;
65079;Laerm;52655;52.218;5.964;2023-07-31T02:26:44;46.2;40.4;54.5;;
65079;Laerm;52655;52.218;5.964;2023-07-31T02:29:45;43.7;39.9;51.2;;
65079;Laerm;52655;52.218;5.964;2023-07-31T02:35:47;43.3;37.2;50.7;;
65079;Laerm;52655;52.218;5.964;2023-07-31T02:40:44;45.9;35.9;64.0;;
65079;Laerm;52655;52.218;5.964;2023-07-31T02:46:46;41.2;34.6;57.8;;
65079;Laerm;52655;52.218;5.964;2023-07-31T02:52:48;38.2;34.3;42.5;;
65079;Laerm;52655;52.218;5.964;2023-07-31T02:58:50;43.1;36.3;56.5;;
65079;Laerm;52655;52.218;5.964;2023-07-31T03:04:52;38.5;35.9;42.6;;
65079;Laerm;52655;52.218;5.964;2023-07-31T03:10:56;43.8;34.0;58.1;;
65079;Laerm;52655;52.218;5.964;2023-07-31T03:16:57;39.1;33.4;55.8;;
65079;Laerm;52655;52.218;5.964;2023-07-31T03:22:59;37.3;33.4;43.7;;
65079;Laerm;52655;52.218;5.964;2023-07-31T03:29:01;39.8;33.6;45.4;;
65079;Laerm;52655;52.218;5.964;2023-07-31T03:33:57;41.6;33.6;60.0;;
65079;Laerm;52655;52.218;5.964;2023-07-31T03:36:58;38.4;33.2;51.4;;
65079;Laerm;52655;52.218;5.964;2023-07-31T03:39:59;42.9;35.1;61.8;;
65079;Laerm;52655;52.218;5.964;2023-07-31T03:43:00;41.8;33.8;56.8;;
65079;Laerm;52655;52.218;5.964;2023-07-31T03:46:02;43.1;34.7;49.5;;
65079;Laerm;52655;52.218;5.964;2023-07-31T03:49:03;39.4;33.4;47.3;;
65079;Laerm;52655;52.218;5.964;2023-07-31T03:52:04;41.8;34.0;61.8;;
65079;Laerm;52655;52.218;5.964;2023-07-31T03:55:05;40.0;33.1;47.9;;
65079;Laerm;52655;52.218;5.964;2023-07-31T03:58:06;37.7;33.0;46.4;;
65079;Laerm;52655;52.218;5.964;2023-07-31T04:01:07;40.3;34.3;52.2;;
65079;Laerm;52655;52.218;5.964;2023-07-31T04:04:08;41.9;33.2;58.0;;
65079;Laerm;52655;52.218;5.964;2023-07-31T04:07:09;36.8;32.4;53.0;;
65079;Laerm;52655;52.218;5.964;2023-07-31T04:10:10;43.5;34.9;59.0;;
65079;Laerm;52655;52.218;5.964;2023-07-31T04:13:11;43.5;34.8;58.1;;
65079;Laerm;52655;52.218;5.964;2023-07-31T04:16:12;38.2;34.4;48.8;;
65079;Laerm;52655;52.218;5.964;2023-07-31T04:19:13;39.8;34.4;60.0;;
65079;Laerm;52655;52.218;5.964;2023-07-31T04:22:14;40.1;35.3;46.7;;
65079;Laerm;52655;52.218;5.964;2023-07-31T04:25:15;42.8;35.5;66.9;;
65079;Laerm;52655;52.218;5.964;2023-07-31T04:28:16;43.7;36.1;58.7;;
65079;Laerm;52655;52.218;5.964;2023-07-31T04:31:17;45.2;35.4;58.7;;
65079;Laerm;52655;52.218;5.964;2023-07-31T04:36:14;44.6;34.8;59.2;;
65079;Laerm;52655;52.218;5.964;2023-07-31T04:39:15;43.1;36.2;55.3;;
65079;Laerm;52655;52.218;5.964;2023-07-31T04:42:16;40.7;35.9;53.6;;
65079;Laerm;52655;52.218;5.964;2023-07-31T04:45:17;44.6;36.8;56.6;;
65079;Laerm;52655;52.218;5.964;2023-07-31T04:48:18;43.8;35.5;53.4;;
65079;Laerm;52655;52.218;5.964;2023-07-31T04:51:19;48.4;37.9;58.8;;
65079;Laerm;52655;52.218;5.964;2023-07-31T04:54:20;42.4;38.0;55.6;;
65079;Laerm;52655;52.218;5.964;2023-07-31T04:57:21;41.2;36.0;52.0;;
65079;Laerm;52655;52.218;5.964;2023-07-31T05:00:22;48.3;37.1;65.1;;
65079;Laerm;52655;52.218;5.964;2023-07-31T05:03:23;45.5;36.2;58.0;;
65079;Laerm;52655;52.218;5.964;2023-07-31T05:06:24;43.2;35.1;55.5;;
65079;Laerm;52655;52.218;5.964;2023-07-31T05:09:25;40.7;35.6;57.6;;
65079;Laerm;52655;52.218;5.964;2023-07-31T05:12:26;44.5;35.8;57.6;;
65079;Laerm;52655;52.218;5.964;2023-07-31T05:15:27;43.4;35.0;58.0;;
65079;Laerm;52655;52.218;5.964;2023-07-31T05:18:28;41.2;35.5;54.4;;
65079;Laerm;52655;52.218;5.964;2023-07-31T05:21:29;43.9;36.7;54.5;;
65079;Laerm;52655;52.218;5.964;2023-07-31T05:24:30;44.0;37.0;55.1;;
65079;Laerm;52655;52.218;5.964;2023-07-31T05:27:32;46.0;35.7;60.1;;
65079;Laerm;52655;52.218;5.964;2023-07-31T05:30:33;45.0;36.5;57.7;;
65079;Laerm;52655;52.218;5.964;2023-07-31T05:33:34;45.2;37.9;56.5;;
65079;Laerm;52655;52.218;5.964;2023-07-31T05:36:35;44.3;36.5;56.9;;
65079;Laerm;52655;52.218;5.964;2023-07-31T05:39:36;44.0;37.3;56.6;;
65079;Laerm;52655;52.218;5.964;2023-07-31T05:45:38;41.9;37.2;55.1;;
65079;Laerm;52655;52.218;5.964;2023-07-31T05:48:39;46.4;39.1;57.9;;
65079;Laerm;52655;52.218;5.964;2023-07-31T05:51:40;46.9;38.1;57.7;;
65079;Laerm;52655;52.218;5.964;2023-07-31T05:54:41;51.2;45.2;62.2;;
65079;Laerm;52655;52.218;5.964;2023-07-31T05:57:42;53.3;46.1;63.9;;
65079;Laerm;52655;52.218;5.964;2023-07-31T06:00:43;56.2;49.7;66.5;;
65079;Laerm;52655;52.218;5.964;2023-07-31T06:03:44;55.5;49.2;63.7;;
65079;Laerm;52655;52.218;5.964;2023-07-31T06:06:45;53.5;47.3;64.9;;
65079;Laerm;52655;52.218;5.964;2023-07-31T06:09:46;53.2;47.9;60.1;;
65079;Laerm;52655;52.218;5.964;2023-07-31T06:12:47;51.4;44.1;64.7;;
65079;Laerm;52655;52.218;5.964;2023-07-31T06:15:48;48.8;40.9;57.3;;
65079;Laerm;52655;52.218;5.964;2023-07-31T06:18:49;47.5;41.5;63.0;;
65079;Laerm;52655;52.218;5.964;2023-07-31T06:21:50;50.4;40.2;64.7;;
65079;Laerm;52655;52.218;5.964;2023-07-31T06:24:51;46.4;41.2;56.0;;
65079;Laerm;52655;52.218;5.964;2023-07-31T06:27:52;48.0;38.2;61.8;;
65079;Laerm;52655;52.218;5.964;2023-07-31T06:33:54;48.7;40.9;59.3;;
65079;Laerm;52655;52.218;5.964;2023-07-31T06:36:56;48.4;38.7;57.9;;
65079;Laerm;52655;52.218;5.964;2023-07-31T06:39:57;46.9;40.2;60.5;;
65079;Laerm;52655;52.218;5.964;2023-07-31T06:42:58;47.2;41.0;56.1;;
65079;Laerm;52655;52.218;5.964;2023-07-31T06:49:00;45.2;39.1;55.7;;
65079;Laerm;52655;52.218;5.964;2023-07-31T06:52:01;46.8;38.6;58.8;;
65079;Laerm;52655;52.218;5.964;2023-07-31T06:55:08;45.5;38.5;56.8;;
65079;Laerm;52655;52.218;5.964;2023-07-31T07:01:04;45.9;38.5;55.3;;
65079;Laerm;52655;52.218;5.964;2023-07-31T07:06:00;44.7;38.1;52.8;;
65079;Laerm;52655;52.218;5.964;2023-07-31T07:12:03;41.8;36.5;53.3;;
65079;Laerm;52655;52.218;5.964;2023-07-31T07:18:05;44.3;37.8;56.2;;
65079;Laerm;52655;52.218;5.964;2023-07-31T07:24:07;44.6;38.9;54.7;;
65079;Laerm;52655;52.218;5.964;2023-07-31T07:30:09;46.9;37.7;59.1;;
65079;Laerm;52655;52.218;5.964;2023-07-31T07:39:12;48.6;40.1;66.7;;
65079;Laerm;52655;52.218;5.964;2023-07-31T07:42:13;48.9;40.4;60.0;;
65079;Laerm;52655;52.218;5.964;2023-07-31T07:48:15;47.9;38.6;58.5;;
65079;Laerm;52655;52.218;5.964;2023-07-31T07:54:17;45.3;38.1;56.5;;
65079;Laerm;52655;52.218;5.964;2023-07-31T07:59:14;45.2;40.9;53.8;;
65079;Laerm;52655;52.218;5.964;2023-07-31T08:05:16;50.7;40.8;60.3;;
65079;Laerm;52655;52.218;5.964;2023-07-31T08:08:17;47.1;39.0;59.1;;
65079;Laerm;52655;52.218;5.964;2023-07-31T08:11:18;48.3;39.0;62.1;;
65079;Laerm;52655;52.218;5.964;2023-07-31T08:14:19;48.2;41.3;57.1;;
65079;Laerm;52655;52.218;5.964;2023-07-31T08:17:20;48.1;41.4;57.4;;
65079;Laerm;52655;52.218;5.964;2023-07-31T08:20:21;48.8;42.1;61.6;;
65079;Laerm;52655;52.218;5.964;2023-07-31T08:26:23;50.2;39.5;58.9;;
65079;Laerm;52655;52.218;5.964;2023-07-31T08:29:24;51.0;43.3;61.4;;
65079;Laerm;52655;52.218;5.964;2023-07-31T08:34:21;53.0;41.2;61.8;;
65079;Laerm;52655;52.218;5.964;2023-07-31T08:40:23;48.6;42.1;59.9;;
65079;Laerm;52655;52.218;5.964;2023-07-31T08:49:26;48.2;40.5;61.7;;
65079;Laerm;52655;52.218;5.964;2023-07-31T08:52:27;49.1;41.8;61.0;;
65079;Laerm;52655;52.218;5.964;2023-07-31T08:58:32;48.7;40.7;59.3;;
65079;Laerm;52655;52.218;5.964;2023-07-31T09:07:33;47.6;37.1;60.3;;
65079;Laerm;52655;52.218;5.964;2023-07-31T09:10:33;48.2;40.3;61.2;;
65079;Laerm;52655;52.218;5.964;2023-07-31T09:16:36;50.0;39.8;58.1;;
65079;Laerm;52655;52.218;5.964;2023-07-31T09:22:37;47.6;40.2;56.5;;
65079;Laerm;52655;52.218;5.964;2023-07-31T09:27:45;48.1;40.4;58.1;;
65079;Laerm;52655;52.218;5.964;2023-07-31T09:30:47;46.4;39.5;56.6;;
65079;Laerm;52655;52.218;5.964;2023-07-31T09:33:39;45.3;38.4;55.7;;
65079;Laerm;52655;52.218;5.964;2023-07-31T09:36:40;48.2;39.7;57.6;;
65079;Laerm;52655;52.218;5.964;2023-07-31T09:39:46;49.7;40.9;57.9;;
65079;Laerm;52655;52.218;5.964;2023-07-31T09:42:39;47.1;41.1;56.8;;
65079;Laerm;52655;52.218;5.964;2023-07-31T09:45:41;45.8;38.4;58.1;;
65079;Laerm;52655;52.218;5.964;2023-07-31T09:48:41;49.8;42.9;61.0;;
65079;Laerm;52655;52.218;5.964;2023-07-31T09:51:42;49.6;40.8;55.8;;
65079;Laerm;52655;52.218;5.964;2023-07-31T09:54:43;46.7;41.3;58.8;;
65079;Laerm;52655;52.218;5.964;2023-07-31T09:57:45;45.7;38.8;55.6;;
65079;Laerm;52655;52.218;5.964;2023-07-31T10:00:46;50.4;44.4;60.7;;
65079;Laerm;52655;52.218;5.964;2023-07-31T10:03:47;52.0;42.0;62.7;;
65079;Laerm;52655;52.218;5.964;2023-07-31T10:06:48;48.7;42.4;59.0;;
65079;Laerm;52655;52.218;5.964;2023-07-31T10:09:49;46.4;40.0;54.5;;
65079;Laerm;52655;52.218;5.964;2023-07-31T10:12:52;46.4;40.0;55.1;;
65079;Laerm;52655;52.218;5.964;2023-07-31T10:15:51;47.4;40.0;59.4;;
65079;Laerm;52655;52.218;5.964;2023-07-31T10:18:52;48.8;39.7;68.0;;
65079;Laerm;52655;52.218;5.964;2023-07-31T10:21:53;51.0;41.3;59.6;;
65079;Laerm;52655;52.218;5.964;2023-07-31T10:24:54;50.2;43.5;60.0;;
65079;Laerm;52655;52.218;5.964;2023-07-31T10:27:55;47.3;42.0;62.0;;
65079;Laerm;52655;52.218;5.964;2023-07-31T10:30:56;47.0;39.5;56.0;;
65079;Laerm;52655;52.218;5.964;2023-07-31T10:33:57;46.1;40.6;56.5;;
65079;Laerm;52655;52.218;5.964;2023-07-31T10:37:19;47.2;40.0;62.1;;
65079;Laerm;52655;52.218;5.964;2023-07-31T10:40:00;46.4;38.7;55.3;;
65079;Laerm;52655;52.218;5.964;2023-07-31T10:43:00;49.1;42.4;56.2;;
65079;Laerm;52655;52.218;5.964;2023-07-31T10:46:01;47.9;42.1;54.7;;
65079;Laerm;52655;52.218;5.964;2023-07-31T10:49:02;47.5;39.5;57.1;;
65079;Laerm;52655;52.218;5.964;2023-07-31T10:52:03;46.9;39.8;61.8;;
65079;Laerm;52655;52.218;5.964;2023-07-31T10:55:14;49.0;40.4;59.6;;
65079;Laerm;52655;52.218;5.964;2023-07-31T10:58:06;48.3;39.3;67.6;;
65079;Laerm;52655;52.218;5.964;2023-07-31T11:01:06;46.7;40.9;55.0;;
65079;Laerm;52655;52.218;5.964;2023-07-31T11:04:10;48.3;39.5;60.1;;
65079;Laerm;52655;52.218;5.964;2023-07-31T11:07:08;46.4;38.7;56.5;;
65079;Laerm;52655;52.218;5.964;2023-07-31T11:10:10;46.7;40.3;62.8;;
65079;Laerm;52655;52.218;5.964;2023-07-31T11:16:12;49.9;38.7;63.2;;
65079;Laerm;52655;52.218;5.964;2023-07-31T11:19:13;60.0;40.7;81.0;;
65079;Laerm;52655;52.218;5.964;2023-07-31T11:22:14;49.2;40.1;61.0;;
65079;Laerm;52655;52.218;5.964;2023-07-31T11:25:15;50.0;38.0;59.7;;
65079;Laerm;52655;52.218;5.964;2023-07-31T11:31:17;48.9;38.8;59.8;;
65079;Laerm;52655;52.218;5.964;2023-07-31T11:34:18;48.0;40.1;60.9;;
65079;Laerm;52655;52.218;5.964;2023-07-31T11:37:19;48.0;39.5;56.0;;
65079;Laerm;52655;52.218;5.964;2023-07-31T11:40:20;49.5;40.8;60.5;;
65079;Laerm;52655;52.218;5.964;2023-07-31T11:43:21;49.7;43.5;58.2;;
65079;Laerm;52655;52.218;5.964;2023-07-31T11:46:22;45.8;40.9;54.9;;
65079;Laerm;52655;52.218;5.964;2023-07-31T11:49:23;48.8;42.9;56.3;;
65079;Laerm;52655;52.218;5.964;2023-07-31T11:55:25;46.4;39.4;57.0;;
65079;Laerm;52655;52.218;5.964;2023-07-31T12:00:22;46.4;40.1;55.2;;
65079;Laerm;52655;52.218;5.964;2023-07-31T12:06:32;46.0;38.9;57.5;;
65079;Laerm;52655;52.218;5.964;2023-07-31T12:12:26;45.9;40.1;54.1;;
65079;Laerm;52655;52.218;5.964;2023-07-31T12:18:34;48.9;43.4;56.4;;
65079;Laerm;52655;52.218;5.964;2023-07-31T12:24:30;47.2;40.3;57.6;;
65079;Laerm;52655;52.218;5.964;2023-07-31T12:30:34;47.9;40.3;60.9;;
65079;Laerm;52655;52.218;5.964;2023-07-31T12:36:34;46.7;40.1;59.0;;
65079;Laerm;52655;52.218;5.964;2023-07-31T12:42:36;46.5;40.6;57.9;;
65079;Laerm;52655;52.218;5.964;2023-07-31T12:48:39;46.7;38.7;55.0;;
65079;Laerm;52655;52.218;5.964;2023-07-31T12:53:35;47.4;39.5;57.1;;
65079;Laerm;52655;52.218;5.964;2023-07-31T12:56:36;44.1;37.3;56.3;;
65079;Laerm;52655;52.218;5.964;2023-07-31T12:59:37;45.0;36.9;54.5;;
65079;Laerm;52655;52.218;5.964;2023-07-31T13:02:38;46.7;38.1;54.2;;
65079;Laerm;52655;52.218;5.964;2023-07-31T13:05:39;49.1;41.5;57.1;;
65079;Laerm;52655;52.218;5.964;2023-07-31T13:08:40;45.0;39.5;53.4;;
65079;Laerm;52655;52.218;5.964;2023-07-31T13:11:41;51.1;41.9;60.6;;
65079;Laerm;52655;52.218;5.964;2023-07-31T13:14:42;48.3;41.0;62.1;;
65079;Laerm;52655;52.218;5.964;2023-07-31T13:17:43;51.0;39.7;67.0;;
65079;Laerm;52655;52.218;5.964;2023-07-31T13:20:45;48.5;38.8;57.4;;
65079;Laerm;52655;52.218;5.964;2023-07-31T13:23:46;46.4;41.3;59.1;;
65079;Laerm;52655;52.218;5.964;2023-07-31T13:29:48;44.9;37.4;55.7;;
65079;Laerm;52655;52.218;5.964;2023-07-31T13:32:49;44.1;36.6;54.8;;
65079;Laerm;52655;52.218;5.964;2023-07-31T13:35:50;46.2;38.7;59.9;;
65079;Laerm;52655;52.218;5.964;2023-07-31T13:38:51;47.9;38.6;67.0;;
65079;Laerm;52655;52.218;5.964;2023-07-31T13:41:52;47.3;40.5;56.5;;
65079;Laerm;52655;52.218;5.964;2023-07-31T13:44:53;48.8;42.1;64.1;;
65079;Laerm;52655;52.218;5.964;2023-07-31T13:47:54;44.0;35.2;56.0;;
65079;Laerm;52655;52.218;5.964;2023-07-31T13:50:55;45.6;36.2;59.5;;
65079;Laerm;52655;52.218;5.964;2023-07-31T13:53:56;46.4;38.1;56.7;;
65079;Laerm;52655;52.218;5.964;2023-07-31T13:56:57;47.1;40.9;67.1;;
65079;Laerm;52655;52.218;5.964;2023-07-31T13:59:58;45.2;36.8;57.6;;
65079;Laerm;52655;52.218;5.964;2023-07-31T14:02:59;45.7;37.8;55.6;;
65079;Laerm;52655;52.218;5.964;2023-07-31T14:06:00;45.3;36.1;53.7;;
65079;Laerm;52655;52.218;5.964;2023-07-31T14:09:01;44.5;37.2;52.7;;
65079;Laerm;52655;52.218;5.964;2023-07-31T14:12:02;45.7;36.1;63.0;;
65079;Laerm;52655;52.218;5.964;2023-07-31T14:15:03;45.9;36.6;56.5;;
65079;Laerm;52655;52.218;5.964;2023-07-31T14:18:04;44.5;40.7;55.0;;
65079;Laerm;52655;52.218;5.964;2023-07-31T14:21:06;50.9;45.0;61.8;;
65079;Laerm;52655;52.218;5.964;2023-07-31T14:24:07;47.6;41.6;56.5;;
65079;Laerm;52655;52.218;5.964;2023-07-31T14:27:08;45.9;40.9;57.7;;
65079;Laerm;52655;52.218;5.964;2023-07-31T14:30:09;50.8;41.7;63.1;;
65079;Laerm;52655;52.218;5.964;2023-07-31T14:33:10;48.8;41.4;57.9;;
65079;Laerm;52655;52.218;5.964;2023-07-31T14:36:11;50.7;41.8;58.9;;
65079;Laerm;52655;52.218;5.964;2023-07-31T14:39:12;48.9;41.0;57.5;;
65079;Laerm;52655;52.218;5.964;2023-07-31T14:42:13;49.9;42.4;59.2;;
65079;Laerm;52655;52.218;5.964;2023-07-31T14:45:14;51.4;42.2;63.0;;
65079;Laerm;52655;52.218;5.964;2023-07-31T14:48:15;50.1;42.4;58.1;;
65079;Laerm;52655;52.218;5.964;2023-07-31T14:51:16;45.4;40.7;56.7;;
65079;Laerm;52655;52.218;5.964;2023-07-31T14:54:17;49.9;41.5;58.2;;
65079;Laerm;52655;52.218;5.964;2023-07-31T14:57:18;49.2;40.2;57.2;;
65079;Laerm;52655;52.218;5.964;2023-07-31T15:00:19;47.3;38.9;57.3;;
65079;Laerm;52655;52.218;5.964;2023-07-31T15:03:20;46.2;39.9;57.8;;
65079;Laerm;52655;52.218;5.964;2023-07-31T15:09:22;48.0;42.7;57.3;;
65079;Laerm;52655;52.218;5.964;2023-07-31T15:12:23;47.9;41.0;57.1;;
65079;Laerm;52655;52.218;5.964;2023-07-31T15:15:24;48.4;40.7;57.0;;
65079;Laerm;52655;52.218;5.964;2023-07-31T15:18:25;47.6;41.4;55.2;;
65079;Laerm;52655;52.218;5.964;2023-07-31T15:24:27;48.7;41.2;58.7;;
65079;Laerm;52655;52.218;5.964;2023-07-31T15:30:29;48.6;39.6;56.7;;
65079;Laerm;52655;52.218;5.964;2023-07-31T15:35:26;46.7;41.4;56.6;;
65079;Laerm;52655;52.218;5.964;2023-07-31T15:41:28;49.2;42.0;62.3;;
65079;Laerm;52655;52.218;5.964;2023-07-31T15:47:30;48.7;41.7;60.0;;
65079;Laerm;52655;52.218;5.964;2023-07-31T15:52:27;49.9;40.7;58.3;;
65079;Laerm;52655;52.218;5.964;2023-07-31T15:58:29;48.8;38.7;61.6;;
65079;Laerm;52655;52.218;5.964;2023-07-31T16:04:31;45.9;39.5;63.7;;
65079;Laerm;52655;52.218;5.964;2023-07-31T16:10:33;50.3;39.5;59.8;;
65079;Laerm;52655;52.218;5.964;2023-07-31T16:16:35;44.6;38.7;54.2;;
65079;Laerm;52655;52.218;5.964;2023-07-31T16:21:32;48.7;39.3;58.7;;
65079;Laerm;52655;52.218;5.964;2023-07-31T16:24:33;47.2;38.4;58.2;;
65079;Laerm;52655;52.218;5.964;2023-07-31T16:27:34;50.6;41.6;61.0;;
65079;Laerm;52655;52.218;5.964;2023-07-31T16:30:35;50.3;42.9;58.4;;
65079;Laerm;52655;52.218;5.964;2023-07-31T16:33:36;52.7;45.8;59.6;;
65079;Laerm;52655;52.218;5.964;2023-07-31T16:36:37;53.2;45.2;64.0;;
65079;Laerm;52655;52.218;5.964;2023-07-31T16:39:38;49.9;43.9;57.0;;
65079;Laerm;52655;52.218;5.964;2023-07-31T16:42:39;49.8;43.3;61.5;;
65079;Laerm;52655;52.218;5.964;2023-07-31T16:45:40;50.5;42.0;59.6;;
65079;Laerm;52655;52.218;5.964;2023-07-31T16:48:41;50.8;42.4;62.7;;
65079;Laerm;52655;52.218;5.964;2023-07-31T16:51:42;47.6;40.9;61.3;;
65079;Laerm;52655;52.218;5.964;2023-07-31T16:54:43;51.0;43.5;58.7;;
65079;Laerm;52655;52.218;5.964;2023-07-31T16:57:44;46.8;39.9;58.6;;
65079;Laerm;52655;52.218;5.964;2023-07-31T17:00:45;49.5;42.7;57.3;;
65079;Laerm;52655;52.218;5.964;2023-07-31T17:03:46;50.2;40.8;71.8;;
65079;Laerm;52655;52.218;5.964;2023-07-31T17:06:47;48.6;39.7;55.3;;
65079;Laerm;52655;52.218;5.964;2023-07-31T17:09:48;47.4;40.0;57.4;;
65079;Laerm;52655;52.218;5.964;2023-07-31T17:12:49;46.0;38.9;58.8;;
65079;Laerm;52655;52.218;5.964;2023-07-31T17:15:51;49.2;41.2;58.1;;
65079;Laerm;52655;52.218;5.964;2023-07-31T17:18:51;46.0;40.8;53.0;;
65079;Laerm;52655;52.218;5.964;2023-07-31T17:21:53;45.9;38.7;54.0;;
65079;Laerm;52655;52.218;5.964;2023-07-31T17:24:54;46.9;39.4;56.7;;
65079;Laerm;52655;52.218;5.964;2023-07-31T17:27:55;49.6;40.9;57.4;;
65079;Laerm;52655;52.218;5.964;2023-07-31T17:30:56;47.4;41.3;55.3;;
65079;Laerm;52655;52.218;5.964;2023-07-31T17:33:57;47.2;41.0;56.2;;
65079;Laerm;52655;52.218;5.964;2023-07-31T17:36:58;47.7;39.4;55.9;;
65079;Laerm;52655;52.218;5.964;2023-07-31T17:39:59;45.8;36.2;54.6;;
65079;Laerm;52655;52.218;5.964;2023-07-31T17:43:00;46.1;38.6;53.9;;
65079;Laerm;52655;52.218;5.964;2023-07-31T17:46:01;46.2;39.1;57.6;;
65079;Laerm;52655;52.218;5.964;2023-07-31T17:49:02;46.9;39.8;57.9;;
65079;Laerm;52655;52.218;5.964;2023-07-31T17:52:03;47.1;41.4;55.3;;
65079;Laerm;52655;52.218;5.964;2023-07-31T17:55:04;50.4;43.8;56.1;;
65079;Laerm;52655;52.218;5.964;2023-07-31T17:58:05;48.7;42.7;57.2;;
65079;Laerm;52655;52.218;5.964;2023-07-31T18:01:06;48.7;42.6;57.9;;
65079;Laerm;52655;52.218;5.964;2023-07-31T18:04:07;45.6;42.4;51.2;;
65079;Laerm;52655;52.218;5.964;2023-07-31T18:07:08;48.8;42.6;56.5;;
65079;Laerm;52655;52.218;5.964;2023-07-31T18:10:09;49.3;43.4;56.2;;
65079;Laerm;52655;52.218;5.964;2023-07-31T18:13:10;48.1;43.2;56.4;;
65079;Laerm;52655;52.218;5.964;2023-07-31T18:16:11;50.0;42.6;63.8;;
65079;Laerm;52655;52.218;5.964;2023-07-31T18:19:12;51.5;45.9;61.7;;
65079;Laerm;52655;52.218;5.964;2023-07-31T18:22:14;53.6;49.4;66.2;;
65079;Laerm;52655;52.218;5.964;2023-07-31T18:25:15;50.9;46.9;58.5;;
65079;Laerm;52655;52.218;5.964;2023-07-31T18:28:16;52.8;49.2;62.6;;
65079;Laerm;52655;52.218;5.964;2023-07-31T18:31:17;53.0;47.4;61.0;;
65079;Laerm;52655;52.218;5.964;2023-07-31T18:34:18;49.4;44.5;58.4;;
65079;Laerm;52655;52.218;5.964;2023-07-31T18:37:19;49.2;44.5;58.8;;
65079;Laerm;52655;52.218;5.964;2023-07-31T18:40:20;46.0;39.1;56.5;;
65079;Laerm;52655;52.218;5.964;2023-07-31T18:43:21;46.6;38.8;57.2;;
65079;Laerm;52655;52.218;5.964;2023-07-31T18:46:22;42.7;37.1;53.5;;
65079;Laerm;52655;52.218;5.964;2023-07-31T18:49:23;43.8;37.0;56.9;;
65079;Laerm;52655;52.218;5.964;2023-07-31T18:52:24;44.0;36.7;56.8;;
65079;Laerm;52655;52.218;5.964;2023-07-31T18:55:25;44.7;36.3;56.3;;
65079;Laerm;52655;52.218;5.964;2023-07-31T18:58:26;44.7;36.1;57.1;;
65079;Laerm;52655;52.218;5.964;2023-07-31T19:01:27;42.8;35.6;56.0;;
65079;Laerm;52655;52.218;5.964;2023-07-31T19:04:28;43.8;36.7;55.8;;
65079;Laerm;52655;52.218;5.964;2023-07-31T19:07:29;43.0;36.8;58.5;;
65079;Laerm;52655;52.218;5.964;2023-07-31T19:10:30;43.7;34.8;55.3;;
65079;Laerm;52655;52.218;5.964;2023-07-31T19:13:31;43.8;33.3;57.0;;
65079;Laerm;52655;52.218;5.964;2023-07-31T19:16:32;44.7;33.8;58.8;;
65079;Laerm;52655;52.218;5.964;2023-07-31T19:19:33;40.8;34.3;55.6;;
65079;Laerm;52655;52.218;5.964;2023-07-31T19:22:34;42.8;34.4;55.5;;
65079;Laerm;52655;52.218;5.964;2023-07-31T19:25:35;43.0;34.3;54.1;;
65079;Laerm;52655;52.218;5.964;2023-07-31T19:28:37;40.9;34.0;54.3;;
65079;Laerm;52655;52.218;5.964;2023-07-31T19:34:39;44.7;36.6;56.7;;
65079;Laerm;52655;52.218;5.964;2023-07-31T19:37:40;42.5;33.9;53.3;;
65079;Laerm;52655;52.218;5.964;2023-07-31T19:43:42;42.3;33.2;55.5;;
65079;Laerm;52655;52.218;5.964;2023-07-31T19:46:43;41.6;33.1;53.4;;
65079;Laerm;52655;52.218;5.964;2023-07-31T19:49:44;41.9;34.6;54.6;;
65079;Laerm;52655;52.218;5.964;2023-07-31T19:52:45;39.6;32.0;56.8;;
65079;Laerm;52655;52.218;5.964;2023-07-31T19:55:46;39.6;32.4;54.4;;
65079;Laerm;52655;52.218;5.964;2023-07-31T19:58:47;43.1;34.2;52.8;;
65079;Laerm;52655;52.218;5.964;2023-07-31T20:01:48;40.3;33.9;54.8;;
65079;Laerm;52655;52.218;5.964;2023-07-31T20:04:49;44.8;33.1;60.3;;
65079;Laerm;52655;52.218;5.964;2023-07-31T20:07:50;41.8;33.0;52.6;;
65079;Laerm;52655;52.218;5.964;2023-07-31T20:10:51;48.0;34.4;66.7;;
65079;Laerm;52655;52.218;5.964;2023-07-31T20:13:52;37.2;32.4;52.2;;
65079;Laerm;52655;52.218;5.964;2023-07-31T20:16:53;42.3;32.9;62.9;;
65079;Laerm;52655;52.218;5.964;2023-07-31T20:19:54;42.4;33.2;56.0;;
65079;Laerm;52655;52.218;5.964;2023-07-31T20:22:55;43.0;33.1;55.1;;
65079;Laerm;52655;52.218;5.964;2023-07-31T20:25:56;41.4;32.8;54.1;;
65079;Laerm;52655;52.218;5.964;2023-07-31T20:28:57;40.0;33.4;55.3;;
65079;Laerm;52655;52.218;5.964;2023-07-31T20:31:58;40.5;32.1;56.3;;
65079;Laerm;52655;52.218;5.964;2023-07-31T20:34:59;41.6;33.1;57.0;;
65079;Laerm;52655;52.218;5.964;2023-07-31T20:38:00;41.1;32.3;54.5;;
65079;Laerm;52655;52.218;5.964;2023-07-31T20:41:02;41.6;32.6;58.1;;
65079;Laerm;52655;52.218;5.964;2023-07-31T20:44:03;43.8;34.6;59.3;;
65079;Laerm;52655;52.218;5.964;2023-07-31T20:47:04;40.6;34.4;53.8;;
65079;Laerm;52655;52.218;5.964;2023-07-31T20:50:05;41.6;33.3;57.6;;
65079;Laerm;52655;52.218;5.964;2023-07-31T20:53:06;41.0;33.1;58.8;;